North Chicago, Illinois
Current Conditions -  °F | °C
As of 5:05 AM on Sunday 23 Nov 2014 (Local Time) from KUGN Reporting Station
Overcast Overcast  
Wind Chill: 50°   Ceiling: 1600
Heat Index: 50°   Visibility: 8mi
Dew Point: 45°   Wind: 12mph
Humidity: 83%   Direction: 200°SSW
Pressure: 29.73"   Gusts: NA
Location:  42.33°N, 87.86°W
Report Text: KUGN 231105Z AUTO 20010KT 8SM OVC016 10/07 A2973 RMK AO2 T01000072
Loading
Personal Weather Stations






























Interactive Weather Map New forecast layout! Learn more

10-Day Weather Forecast

Advertisements
Track Severe Weather on mobile